createdAt,value
2023-04-02T00:04:15.561Z,14.25
2023-04-02T00:09:22.754Z,13.11
2023-04-02T00:14:30.036Z,8.83
2023-04-02T00:19:37.231Z,8.88
2023-04-02T00:24:44.703Z,11.74
2023-04-02T00:29:51.947Z,14.17
2023-04-02T00:34:59.247Z,9.29
2023-04-02T00:40:06.486Z,8.23
2023-04-02T00:45:13.976Z,5.74
2023-04-02T00:50:21.232Z,11.28
2023-04-02T00:55:28.630Z,4.48
2023-04-02T01:00:35.799Z,4.33
2023-04-02T01:05:43.233Z,6.01
2023-04-02T01:10:50.404Z,4.75
2023-04-02T01:15:57.818Z,5.41
2023-04-02T01:21:04.961Z,4.09
2023-04-02T01:26:12.311Z,5.09
2023-04-02T01:31:19.574Z,5.65
2023-04-02T01:36:26.843Z,5.12
2023-04-02T01:41:33.965Z,5.38
2023-04-02T01:46:41.261Z,4.22
2023-04-02T01:51:48.412Z,3.44
2023-04-02T01:56:55.810Z,4.04
2023-04-02T02:02:02.993Z,3.18
2023-04-02T02:07:10.310Z,5.07
2023-04-02T02:12:17.575Z,4.34
2023-04-02T02:17:24.949Z,6.67
2023-04-02T02:22:32.097Z,3.10
2023-04-02T02:27:39.502Z,6.14
2023-04-02T02:32:46.776Z,4.73
2023-04-02T02:37:54.140Z,6.20
2023-04-02T02:43:01.467Z,2.92
2023-04-02T02:48:08.822Z,3.35
2023-04-02T02:53:15.988Z,4.83
2023-04-02T02:58:23.477Z,6.64
2023-04-02T03:03:30.798Z,5.50
2023-04-02T03:08:37.897Z,6.86
2023-04-02T03:13:45.043Z,3.82
2023-04-02T03:18:52.414Z,2.69
2023-04-02T03:23:59.635Z,2.86
2023-04-02T03:29:07.031Z,3.11
2023-04-02T03:34:14.233Z,3.51
2023-04-02T03:39:21.740Z,4.78
2023-04-02T03:44:29.001Z,5.61
2023-04-02T03:49:36.415Z,3.96
2023-04-02T03:54:53.737Z,3.55
2023-04-02T03:59:50.562Z,4.51
2023-04-02T04:04:57.828Z,3.69
2023-04-02T04:10:05.333Z,5.09
2023-04-02T04:15:12.520Z,4.19
2023-04-02T04:20:19.920Z,7.40
2023-04-02T04:25:27.160Z,6.18
2023-04-02T04:30:34.433Z,4.89
2023-04-02T04:35:41.632Z,3.03
2023-04-02T04:40:49.113Z,5.57
2023-04-02T04:45:56.466Z,3.47
2023-04-02T04:51:03.808Z,3.41
2023-04-02T05:01:18.282Z,2.54
2023-04-02T05:06:25.650Z,4.08
2023-04-02T05:11:33.239Z,3.03
2023-04-02T05:16:40.590Z,3.10
2023-04-02T05:21:48.030Z,2.07
2023-04-02T05:26:55.388Z,2.34
2023-04-02T05:32:02.766Z,3.31
2023-04-02T05:37:10.017Z,2.13
2023-04-02T05:42:17.450Z,3.06
2023-04-02T05:47:24.805Z,3.55
2023-04-02T05:52:32.214Z,3.14
2023-04-02T05:57:46.912Z,3.16
2023-04-02T06:02:46.604Z,6.46
2023-04-02T06:07:53.863Z,2.06
2023-04-02T06:13:03.085Z,2.62
2023-04-02T06:18:10.273Z,4.36
2023-04-02T06:23:17.537Z,4.41
2023-04-02T06:28:24.686Z,2.32
2023-04-02T06:33:32.201Z,2.69
2023-04-02T06:38:39.360Z,2.00
2023-04-02T06:43:46.680Z,2.38
2023-04-02T06:48:54.009Z,3.98
2023-04-02T06:54:01.390Z,4.76
2023-04-02T06:59:08.574Z,2.99
2023-04-02T07:04:15.837Z,4.98
2023-04-02T07:09:25.066Z,2.36
2023-04-02T07:14:32.681Z,2.21
2023-04-02T07:19:39.852Z,4.84
2023-04-02T07:24:47.251Z,3.73
2023-04-02T07:29:54.390Z,2.81
2023-04-02T07:35:01.843Z,5.13
2023-04-02T07:40:09.415Z,2.92
2023-04-02T07:45:16.675Z,4.49
2023-04-02T07:50:23.891Z,2.09
2023-04-02T07:55:31.196Z,3.00
2023-04-02T08:00:38.400Z,3.37
2023-04-02T08:05:45.728Z,2.90
2023-04-02T08:10:53.006Z,2.03
2023-04-02T08:16:00.335Z,2.56
2023-04-02T08:21:07.532Z,2.63
2023-04-02T08:26:14.791Z,2.05
2023-04-02T08:31:22.042Z,2.46
2023-04-02T08:36:29.401Z,2.37
2023-04-02T08:41:36.492Z,3.49
2023-04-02T08:46:43.813Z,2.31
2023-04-02T08:51:51.107Z,4.44
2023-04-02T08:56:58.600Z,5.83
2023-04-02T09:02:05.709Z,3.66
2023-04-02T09:07:13.043Z,2.41
2023-04-02T09:12:20.290Z,3.01
2023-04-02T09:17:27.577Z,2.48
2023-04-02T09:22:34.801Z,2.65
2023-04-02T09:27:42.267Z,2.78
2023-04-02T09:32:49.613Z,2.70
2023-04-02T09:37:56.877Z,4.60
2023-04-02T09:43:04.030Z,2.15
2023-04-02T09:48:11.502Z,4.64
2023-04-02T09:53:18.696Z,2.77
2023-04-02T09:58:26.175Z,3.74
2023-04-02T10:03:33.527Z,2.54
2023-04-02T10:08:40.836Z,3.37
2023-04-02T10:13:48.093Z,2.79
2023-04-02T10:18:55.542Z,3.77
2023-04-02T10:24:02.765Z,2.54
2023-04-02T10:29:10.056Z,8.54
2023-04-02T10:34:17.182Z,2.58
2023-04-02T10:39:24.619Z,3.31
2023-04-02T10:44:31.885Z,2.23
2023-04-02T10:49:39.277Z,2.88
2023-04-02T10:54:46.424Z,4.98
2023-04-02T10:59:53.835Z,5.94
2023-04-02T11:05:01.948Z,6.86
2023-04-02T11:10:08.034Z,3.64
2023-04-02T11:15:15.258Z,2.87
2023-04-02T11:20:22.606Z,4.09
2023-04-02T11:25:29.796Z,3.72
2023-04-02T11:30:37.199Z,3.42
2023-04-02T11:35:44.498Z,3.32
2023-04-02T11:40:51.807Z,2.31
2023-04-02T11:45:59.223Z,2.35
2023-04-02T11:51:06.351Z,2.02
2023-04-02T11:56:13.612Z,2.22
2023-04-02T12:01:21.009Z,3.33
2023-04-02T12:06:28.191Z,3.15
2023-04-02T12:11:35.530Z,2.44
2023-04-02T12:16:42.818Z,1.89
2023-04-02T12:21:50.139Z,2.84
2023-04-02T12:26:57.332Z,2.58
2023-04-02T12:32:04.584Z,4.39
2023-04-02T12:37:11.922Z,1.54
2023-04-02T12:42:19.366Z,3.21
2023-04-02T12:47:26.707Z,2.49
2023-04-02T12:52:33.976Z,1.58
2023-04-02T12:57:41.473Z,1.63
2023-04-02T13:02:48.760Z,4.24
2023-04-02T13:07:55.909Z,2.34
2023-04-02T13:13:03.308Z,1.75
2023-04-02T13:18:10.594Z,1.35
2023-04-02T13:23:18.061Z,6.59
2023-04-02T13:28:25.380Z,5.44
2023-04-02T13:33:32.796Z,1.32
2023-04-02T13:38:39.954Z,3.73
2023-04-02T13:43:47.368Z,3.39
2023-04-02T13:48:54.496Z,2.43
2023-04-02T13:54:01.957Z,1.51
2023-04-02T13:59:09.142Z,1.53
2023-04-02T14:04:16.651Z,3.72
2023-04-02T14:09:24.134Z,5.36
2023-04-02T14:14:31.484Z,7.19
2023-04-02T14:19:38.618Z,1.61
2023-04-02T14:24:46.045Z,2.62
2023-04-02T14:29:53.359Z,2.03
2023-04-02T14:35:00.684Z,1.31
2023-04-02T14:40:07.943Z,1.49
2023-04-02T14:45:15.264Z,1.34
2023-04-02T14:50:22.461Z,1.31
2023-04-02T14:55:29.857Z,2.90
2023-04-02T15:00:37.208Z,4.37
2023-04-02T15:05:43.954Z,2.18
2023-04-02T15:10:51.171Z,2.18
2023-04-02T15:15:58.572Z,1.79
2023-04-02T15:20:55.565Z,2.33
2023-04-02T15:26:12.977Z,4.18
2023-04-02T15:31:20.188Z,12.59
2023-04-02T15:36:27.524Z,4.11
2023-04-02T15:41:34.767Z,3.39
2023-04-02T15:46:42.088Z,1.24
2023-04-02T15:51:50.123Z,2.16
2023-04-02T15:56:56.154Z,2.40
2023-04-02T16:02:03.376Z,1.14
2023-04-02T16:07:10.667Z,1.58
2023-04-02T16:12:17.862Z,1.23
2023-04-02T16:17:25.740Z,1.12
2023-04-02T16:22:31.948Z,1.69
2023-04-02T16:27:39.402Z,3.51
2023-04-02T16:32:46.620Z,1.74
2023-04-02T16:37:53.862Z,2.39
2023-04-02T16:43:01.132Z,1.84
2023-04-02T16:48:08.527Z,2.02
2023-04-02T16:53:15.657Z,2.99
2023-04-02T16:58:23.045Z,3.70
2023-04-02T17:03:30.320Z,4.89
2023-04-02T17:08:37.454Z,3.11
2023-04-02T17:13:44.624Z,3.92
2023-04-02T17:18:51.861Z,2.76
2023-04-02T17:23:59.148Z,2.45
2023-04-02T17:29:06.398Z,4.12
2023-04-02T17:34:13.576Z,10.35
2023-04-02T17:39:20.919Z,7.39
2023-04-02T17:44:28.152Z,7.56
2023-04-02T17:49:35.564Z,12.36
2023-04-02T17:54:43.040Z,11.73
2023-04-02T17:59:50.563Z,19.24
2023-04-02T18:04:57.741Z,23.13
2023-04-02T18:10:05.190Z,7.77
2023-04-02T18:15:12.362Z,8.25
2023-04-02T18:20:19.739Z,14.39
2023-04-02T18:25:27.372Z,12.20
2023-04-02T18:30:34.808Z,15.73
2023-04-02T18:35:41.974Z,13.53
2023-04-02T18:40:49.375Z,15.83
2023-04-02T18:45:56.619Z,13.68
2023-04-02T18:51:05.869Z,15.77
2023-04-02T18:56:11.966Z,28.53
2023-04-02T19:01:17.592Z,20.43
2023-04-02T19:06:24.753Z,20.55
2023-04-02T19:11:32.069Z,14.04
2023-04-02T19:16:39.308Z,12.68
2023-04-02T19:21:46.760Z,18.30
2023-04-02T19:26:53.971Z,22.32
2023-04-02T19:32:01.432Z,16.98
2023-04-02T19:37:08.574Z,14.92
2023-04-02T19:42:16.064Z,26.70
2023-04-02T19:47:25.223Z,39.11
2023-04-02T19:52:32.570Z,23.24
2023-04-02T19:57:39.955Z,16.31
2023-04-02T20:02:47.317Z,16.22
2023-04-02T20:07:54.548Z,14.51
2023-04-02T20:13:01.986Z,20.18
2023-04-02T20:18:09.142Z,15.55
2023-04-02T20:23:16.425Z,19.78
2023-04-02T20:28:23.623Z,24.21
2023-04-02T20:33:31.009Z,26.37
2023-04-02T20:38:38.086Z,21.39
2023-04-02T20:43:45.447Z,23.04
2023-04-02T20:48:52.617Z,27.30
2023-04-02T20:53:59.979Z,23.23
2023-04-02T20:59:07.216Z,16.84
2023-04-02T21:04:14.612Z,22.21
2023-04-02T21:09:22.089Z,14.93
2023-04-02T21:14:29.428Z,15.52
2023-04-02T21:19:36.657Z,14.17
2023-04-02T21:24:44.012Z,12.51
2023-04-02T21:29:51.187Z,17.90
2023-04-02T21:34:58.640Z,16.87
2023-04-02T21:40:05.922Z,16.70
2023-04-02T21:45:13.318Z,13.93
2023-04-02T21:50:20.487Z,11.53
2023-04-02T21:55:27.861Z,17.05
2023-04-02T22:00:35.411Z,7.94
2023-04-02T22:05:42.491Z,9.57
2023-04-02T22:10:49.732Z,11.39
2023-04-02T22:15:56.965Z,8.31
2023-04-02T22:21:04.165Z,10.36
2023-04-02T22:26:11.581Z,11.48
2023-04-02T22:31:18.744Z,15.55
2023-04-02T22:36:26.093Z,8.03
2023-04-02T22:41:33.340Z,18.98
2023-04-02T22:46:41.259Z,14.14
2023-04-02T22:51:48.400Z,12.89
2023-04-02T22:56:55.742Z,15.08
2023-04-02T23:02:02.986Z,16.22
2023-04-02T23:07:10.244Z,15.00
2023-04-02T23:12:17.429Z,15.87
2023-04-02T23:17:24.758Z,29.93
2023-04-02T23:22:32.025Z,28.40
2023-04-02T23:27:39.367Z,19.63
2023-04-02T23:32:46.641Z,26.64
2023-04-02T23:37:54.010Z,15.65
2023-04-02T23:43:01.224Z,16.86
2023-04-02T23:48:08.633Z,14.89
2023-04-02T23:53:15.770Z,19.43
2023-04-02T23:58:23.101Z,14.46
